Venetia, PA

10:38 PM EST on November 27, 2014 (GMT -0500)
Wheeling-Ohio County | Change Station
CLOSE
Current Station
Airport
Location: Wheeling,
Elevation: 1194 ft
Nearby Weather Stations

Elev 1194 ft 40.17 °N, 80.65 °W | Updated 25 minutes ago

Overcast
Overcast
27 °F
Feels Like 19 °F
N
8
Wind Variable Wind from WSW

Today
High -- | Low -- °F
--% Chance of Precip.
Yesterday
High -- | Low -- °F
Precip. -- in
7:19 AM 4:56 PM
Waxing Crescent, 36% visible
Pressure 30.22 in
Visibility 9.0 miles
Clouds Few 1100 ft
Mostly Cloudy 2300 ft
Mostly Cloudy 10000 ft
Windchill 19 °F
Dew Point 23 °F
Humidity 85%
Rainfall 0.01 in
Snow Depth Not available.
UV 0 out of 12
Pollen .10 out of 12
Air Quality Not available.
Flu Activity Not available.
SPECI KHLG 280313Z AUTO 25007KT 9SM FEW011 BKN023 BKN100 M03/M05 A3022 RMK AO2 T10281050

More Conditions Fewer Conditions

Pressure 30.22 in
Visibility 9.0 miles
Clouds Few 1100 ft
Mostly Cloudy 2300 ft
Mostly Cloudy 10000 ft
Windchill 19 °F
Dew Point 23 °F
Humidity 85%
Rainfall 0.01 in
Snow Depth Not available.
UV 0 out of 12
Pollen .10 out of 12
Air Quality Not available.
Flu Activity Not available.
SPECI KHLG 280313Z AUTO 25007KT 9SM FEW011 BKN023 BKN100 M03/M05 A3022 RMK AO2 T10281050

More Conditions Fewer Conditions

10-Day Weather Forecast

Almanac

Astronomy

Nov. 27, 2014 Rise Set
Actual Time
Civil Twilight
Nautical Twilight
Astronomical Twilight
Moon
Length of Visible Light
Length of Day
Tomorrow will be .
, % of the Moon is Illuminated

Today's Extremes

State Highs State Lows

Community

WunderPhotos

Upload Photos

1,774,168 photos uploaded!

WunderBlogs® & News

Nearby

Air Quality

  Air Quality AQ Index Pollutant
Not available.

Snow Depth

Station Depth Elevation

Earthquake Activity

City Distance Mag. Time & Date
Minimum magnitude displayed is 2.5.

Coastal Water Temperatures

Place Temperature

Nearby Weather Stations